sensor_id;sensor_type;location;lat;lon;timestamp;P1;durP1;ratioP1;P2;durP2;ratioP2
77018;SDS011;66044;53.142;17.962;2023-02-11T00:00:42;22.90;;;9.10;;
77018;SDS011;66044;53.142;17.962;2023-02-11T00:03:24;21.20;;;10.10;;
77018;SDS011;66044;53.142;17.962;2023-02-11T00:06:04;19.80;;;8.40;;
77018;SDS011;66044;53.142;17.962;2023-02-11T00:08:47;20.10;;;8.70;;
77018;SDS011;66044;53.142;17.962;2023-02-11T00:11:27;25.90;;;11.90;;
77018;SDS011;66044;53.142;17.962;2023-02-11T00:14:02;20.20;;;8.90;;
77018;SDS011;66044;53.142;17.962;2023-02-11T00:16:32;21.20;;;9.20;;
77018;SDS011;66044;53.142;17.962;2023-02-11T00:19:08;25.90;;;10.50;;
77018;SDS011;66044;53.142;17.962;2023-02-11T00:21:35;24.50;;;10.00;;
77018;SDS011;66044;53.142;17.962;2023-02-11T00:24:01;29.90;;;12.20;;
77018;SDS011;66044;53.142;17.962;2023-02-11T00:26:30;27.10;;;9.80;;
77018;SDS011;66044;53.142;17.962;2023-02-11T00:29:04;22.10;;;10.40;;
77018;SDS011;66044;53.142;17.962;2023-02-11T00:31:31;20.50;;;9.30;;
77018;SDS011;66044;53.142;17.962;2023-02-11T00:33:58;18.60;;;8.60;;
77018;SDS011;66044;53.142;17.962;2023-02-11T00:36:25;19.30;;;7.60;;
77018;SDS011;66044;53.142;17.962;2023-02-11T00:38:53;21.40;;;8.90;;
77018;SDS011;66044;53.142;17.962;2023-02-11T00:41:22;27.70;;;11.40;;
77018;SDS011;66044;53.142;17.962;2023-02-11T00:43:49;21.60;;;8.20;;
77018;SDS011;66044;53.142;17.962;2023-02-11T00:46:16;25.30;;;10.80;;
77018;SDS011;66044;53.142;17.962;2023-02-11T00:48:42;22.80;;;10.30;;
77018;SDS011;66044;53.142;17.962;2023-02-11T00:51:09;23.80;;;8.90;;
77018;SDS011;66044;53.142;17.962;2023-02-11T00:56:41;29.60;;;10.80;;
77018;SDS011;66044;53.142;17.962;2023-02-11T00:59:21;18.70;;;8.30;;
77018;SDS011;66044;53.142;17.962;2023-02-11T01:02:15;20.60;;;9.40;;
77018;SDS011;66044;53.142;17.962;2023-02-11T01:04:53;21.70;;;8.90;;
77018;SDS011;66044;53.142;17.962;2023-02-11T01:07:34;21.30;;;9.10;;
77018;SDS011;66044;53.142;17.962;2023-02-11T01:10:00;20.40;;;8.50;;
77018;SDS011;66044;53.142;17.962;2023-02-11T01:12:29;23.40;;;9.90;;
77018;SDS011;66044;53.142;17.962;2023-02-11T01:14:58;20.30;;;8.00;;
77018;SDS011;66044;53.142;17.962;2023-02-11T01:17:25;22.10;;;9.10;;
77018;SDS011;66044;53.142;17.962;2023-02-11T01:19:51;21.40;;;8.50;;
77018;SDS011;66044;53.142;17.962;2023-02-11T01:22:18;20.40;;;9.50;;
77018;SDS011;66044;53.142;17.962;2023-02-11T01:24:44;22.80;;;9.70;;
77018;SDS011;66044;53.142;17.962;2023-02-11T01:27:11;13.10;;;5.90;;
77018;SDS011;66044;53.142;17.962;2023-02-11T01:29:37;19.70;;;9.00;;
77018;SDS011;66044;53.142;17.962;2023-02-11T01:32:03;20.00;;;9.10;;
77018;SDS011;66044;53.142;17.962;2023-02-11T01:34:30;19.70;;;8.10;;
77018;SDS011;66044;53.142;17.962;2023-02-11T01:36:57;22.90;;;10.00;;
77018;SDS011;66044;53.142;17.962;2023-02-11T01:39:24;20.40;;;9.10;;
77018;SDS011;66044;53.142;17.962;2023-02-11T01:41:52;20.30;;;9.20;;
77018;SDS011;66044;53.142;17.962;2023-02-11T01:44:23;21.30;;;9.10;;
77018;SDS011;66044;53.142;17.962;2023-02-11T01:46:51;22.30;;;9.60;;
77018;SDS011;66044;53.142;17.962;2023-02-11T01:49:24;19.00;;;8.80;;
77018;SDS011;66044;53.142;17.962;2023-02-11T01:51:58;25.40;;;11.00;;
77018;SDS011;66044;53.142;17.962;2023-02-11T01:54:29;16.00;;;6.40;;
77018;SDS011;66044;53.142;17.962;2023-02-11T01:57:17;20.70;;;8.20;;
77018;SDS011;66044;53.142;17.962;2023-02-11T01:59:56;21.30;;;8.60;;
77018;SDS011;66044;53.142;17.962;2023-02-11T02:05:18;20.50;;;7.70;;
77018;SDS011;66044;53.142;17.962;2023-02-11T02:10:16;24.30;;;9.70;;
77018;SDS011;66044;53.142;17.962;2023-02-11T02:12:45;22.40;;;9.50;;
77018;SDS011;66044;53.142;17.962;2023-02-11T02:15:28;19.90;;;8.60;;
77018;SDS011;66044;53.142;17.962;2023-02-11T02:18:02;20.70;;;8.70;;
77018;SDS011;66044;53.142;17.962;2023-02-11T02:29:04;22.60;;;8.60;;
77018;SDS011;66044;53.142;17.962;2023-02-11T02:31:40;17.00;;;7.30;;
77018;SDS011;66044;53.142;17.962;2023-02-11T02:37:07;23.50;;;10.00;;
77018;SDS011;66044;53.142;17.962;2023-02-11T02:39:42;22.40;;;9.40;;
77018;SDS011;66044;53.142;17.962;2023-02-11T02:42:13;19.80;;;9.30;;
77018;SDS011;66044;53.142;17.962;2023-02-11T02:44:46;19.90;;;8.60;;
77018;SDS011;66044;53.142;17.962;2023-02-11T02:47:14;19.50;;;9.40;;
77018;SDS011;66044;53.142;17.962;2023-02-11T02:49:41;17.10;;;7.40;;
77018;SDS011;66044;53.142;17.962;2023-02-11T03:00:28;22.30;;;9.40;;
77018;SDS011;66044;53.142;17.962;2023-02-11T03:03:20;22.10;;;8.80;;
77018;SDS011;66044;53.142;17.962;2023-02-11T03:06:00;16.80;;;7.00;;
77018;SDS011;66044;53.142;17.962;2023-02-11T03:08:49;28.00;;;12.10;;
77018;SDS011;66044;53.142;17.962;2023-02-11T03:11:22;20.30;;;8.20;;
77018;SDS011;66044;53.142;17.962;2023-02-11T03:13:50;18.20;;;7.90;;
77018;SDS011;66044;53.142;17.962;2023-02-11T03:16:20;24.60;;;9.40;;
77018;SDS011;66044;53.142;17.962;2023-02-11T03:18:52;19.10;;;8.50;;
77018;SDS011;66044;53.142;17.962;2023-02-11T03:21:24;18.00;;;8.80;;
77018;SDS011;66044;53.142;17.962;2023-02-11T03:23:55;25.90;;;11.30;;
77018;SDS011;66044;53.142;17.962;2023-02-11T03:26:34;19.50;;;7.60;;
77018;SDS011;66044;53.142;17.962;2023-02-11T03:31:44;23.60;;;10.00;;
77018;SDS011;66044;53.142;17.962;2023-02-11T03:34:28;23.40;;;9.00;;
77018;SDS011;66044;53.142;17.962;2023-02-11T03:37:21;25.90;;;11.50;;
77018;SDS011;66044;53.142;17.962;2023-02-11T03:39:53;25.80;;;9.10;;
77018;SDS011;66044;53.142;17.962;2023-02-11T03:42:26;23.50;;;9.90;;
77018;SDS011;66044;53.142;17.962;2023-02-11T03:45:01;25.80;;;10.40;;
77018;SDS011;66044;53.142;17.962;2023-02-11T03:47:32;25.90;;;11.30;;
77018;SDS011;66044;53.142;17.962;2023-02-11T03:50:02;25.60;;;11.60;;
77018;SDS011;66044;53.142;17.962;2023-02-11T03:52:33;22.90;;;9.60;;
77018;SDS011;66044;53.142;17.962;2023-02-11T03:55:02;22.70;;;10.80;;
77018;SDS011;66044;53.142;17.962;2023-02-11T03:57:34;20.70;;;8.70;;
77018;SDS011;66044;53.142;17.962;2023-02-11T04:00:00;24.70;;;10.60;;
77018;SDS011;66044;53.142;17.962;2023-02-11T04:02:28;28.50;;;13.10;;
77018;SDS011;66044;53.142;17.962;2023-02-11T04:04:57;32.10;;;13.20;;
77018;SDS011;66044;53.142;17.962;2023-02-11T04:07:24;33.30;;;12.20;;
77018;SDS011;66044;53.142;17.962;2023-02-11T04:09:51;23.40;;;11.10;;
77018;SDS011;66044;53.142;17.962;2023-02-11T04:12:18;23.20;;;10.40;;
77018;SDS011;66044;53.142;17.962;2023-02-11T04:14:45;23.60;;;10.90;;
77018;SDS011;66044;53.142;17.962;2023-02-11T04:17:11;22.20;;;11.30;;
77018;SDS011;66044;53.142;17.962;2023-02-11T04:19:38;26.70;;;12.10;;
77018;SDS011;66044;53.142;17.962;2023-02-11T04:22:05;22.60;;;9.70;;
77018;SDS011;66044;53.142;17.962;2023-02-11T04:24:32;20.60;;;9.20;;
77018;SDS011;66044;53.142;17.962;2023-02-11T04:26:58;26.60;;;12.40;;
77018;SDS011;66044;53.142;17.962;2023-02-11T04:29:25;27.90;;;11.80;;
77018;SDS011;66044;53.142;17.962;2023-02-11T04:31:51;30.30;;;12.40;;
77018;SDS011;66044;53.142;17.962;2023-02-11T04:34:18;27.90;;;10.50;;
77018;SDS011;66044;53.142;17.962;2023-02-11T04:36:44;27.10;;;11.50;;
77018;SDS011;66044;53.142;17.962;2023-02-11T04:39:11;26.80;;;11.40;;
77018;SDS011;66044;53.142;17.962;2023-02-11T04:41:37;25.70;;;11.40;;
77018;SDS011;66044;53.142;17.962;2023-02-11T04:44:04;21.20;;;10.20;;
77018;SDS011;66044;53.142;17.962;2023-02-11T04:46:30;27.10;;;12.50;;
77018;SDS011;66044;53.142;17.962;2023-02-11T04:48:57;34.20;;;15.80;;
77018;SDS011;66044;53.142;17.962;2023-02-11T04:51:23;29.60;;;11.30;;
77018;SDS011;66044;53.142;17.962;2023-02-11T04:53:50;21.10;;;9.30;;
77018;SDS011;66044;53.142;17.962;2023-02-11T04:56:17;23.80;;;10.40;;
77018;SDS011;66044;53.142;17.962;2023-02-11T04:58:43;24.30;;;9.60;;
77018;SDS011;66044;53.142;17.962;2023-02-11T05:01:11;23.00;;;10.60;;
77018;SDS011;66044;53.142;17.962;2023-02-11T05:03:39;34.00;;;15.30;;
77018;SDS011;66044;53.142;17.962;2023-02-11T05:06:07;29.90;;;13.20;;
77018;SDS011;66044;53.142;17.962;2023-02-11T05:08:35;24.70;;;10.70;;
77018;SDS011;66044;53.142;17.962;2023-02-11T05:11:02;22.80;;;9.70;;
77018;SDS011;66044;53.142;17.962;2023-02-11T05:13:28;23.90;;;9.90;;
77018;SDS011;66044;53.142;17.962;2023-02-11T05:15:55;24.50;;;10.80;;
77018;SDS011;66044;53.142;17.962;2023-02-11T05:18:22;30.80;;;11.40;;
77018;SDS011;66044;53.142;17.962;2023-02-11T05:20:48;32.70;;;14.20;;
77018;SDS011;66044;53.142;17.962;2023-02-11T05:23:15;24.80;;;10.70;;
77018;SDS011;66044;53.142;17.962;2023-02-11T05:25:41;25.20;;;12.30;;
77018;SDS011;66044;53.142;17.962;2023-02-11T05:28:08;26.70;;;10.70;;
77018;SDS011;66044;53.142;17.962;2023-02-11T05:30:34;24.80;;;11.90;;
77018;SDS011;66044;53.142;17.962;2023-02-11T05:33:01;32.10;;;13.80;;
77018;SDS011;66044;53.142;17.962;2023-02-11T05:35:27;29.20;;;13.90;;
77018;SDS011;66044;53.142;17.962;2023-02-11T05:37:54;24.80;;;12.00;;
77018;SDS011;66044;53.142;17.962;2023-02-11T05:40:20;25.90;;;10.70;;
77018;SDS011;66044;53.142;17.962;2023-02-11T05:42:46;29.20;;;13.60;;
77018;SDS011;66044;53.142;17.962;2023-02-11T05:45:13;23.30;;;10.40;;
77018;SDS011;66044;53.142;17.962;2023-02-11T05:47:39;23.90;;;10.40;;
77018;SDS011;66044;53.142;17.962;2023-02-11T05:50:06;28.50;;;12.40;;
77018;SDS011;66044;53.142;17.962;2023-02-11T05:52:33;28.30;;;13.20;;
77018;SDS011;66044;53.142;17.962;2023-02-11T05:54:59;29.70;;;13.40;;
77018;SDS011;66044;53.142;17.962;2023-02-11T05:57:26;28.90;;;12.40;;
77018;SDS011;66044;53.142;17.962;2023-02-11T05:59:52;22.90;;;10.20;;
77018;SDS011;66044;53.142;17.962;2023-02-11T06:02:19;32.00;;;14.20;;
77018;SDS011;66044;53.142;17.962;2023-02-11T06:04:45;25.20;;;12.00;;
77018;SDS011;66044;53.142;17.962;2023-02-11T06:07:12;21.70;;;9.70;;
77018;SDS011;66044;53.142;17.962;2023-02-11T06:09:38;24.20;;;10.80;;
77018;SDS011;66044;53.142;17.962;2023-02-11T06:12:05;19.80;;;8.60;;
77018;SDS011;66044;53.142;17.962;2023-02-11T06:14:32;27.10;;;12.70;;
77018;SDS011;66044;53.142;17.962;2023-02-11T06:16:59;30.90;;;13.20;;
77018;SDS011;66044;53.142;17.962;2023-02-11T06:19:26;26.60;;;12.60;;
77018;SDS011;66044;53.142;17.962;2023-02-11T06:21:54;29.90;;;13.00;;
77018;SDS011;66044;53.142;17.962;2023-02-11T06:24:21;26.60;;;12.40;;
77018;SDS011;66044;53.142;17.962;2023-02-11T06:26:49;24.90;;;10.40;;
77018;SDS011;66044;53.142;17.962;2023-02-11T06:29:15;27.40;;;12.30;;
77018;SDS011;66044;53.142;17.962;2023-02-11T06:31:42;29.30;;;12.00;;
77018;SDS011;66044;53.142;17.962;2023-02-11T06:34:08;30.80;;;15.40;;
77018;SDS011;66044;53.142;17.962;2023-02-11T06:36:37;26.30;;;10.60;;
77018;SDS011;66044;53.142;17.962;2023-02-11T06:39:05;32.30;;;13.10;;
77018;SDS011;66044;53.142;17.962;2023-02-11T06:41:32;37.20;;;16.30;;
77018;SDS011;66044;53.142;17.962;2023-02-11T06:43:59;41.30;;;17.10;;
77018;SDS011;66044;53.142;17.962;2023-02-11T06:46:26;35.60;;;16.60;;
77018;SDS011;66044;53.142;17.962;2023-02-11T06:48:52;29.60;;;13.60;;
77018;SDS011;66044;53.142;17.962;2023-02-11T06:51:19;23.30;;;11.70;;
77018;SDS011;66044;53.142;17.962;2023-02-11T06:53:46;32.10;;;15.10;;
77018;SDS011;66044;53.142;17.962;2023-02-11T06:56:14;26.00;;;11.20;;
77018;SDS011;66044;53.142;17.962;2023-02-11T06:58:42;32.30;;;14.00;;
77018;SDS011;66044;53.142;17.962;2023-02-11T07:01:10;28.90;;;13.90;;
77018;SDS011;66044;53.142;17.962;2023-02-11T07:03:39;24.60;;;11.90;;
77018;SDS011;66044;53.142;17.962;2023-02-11T07:06:10;24.10;;;10.40;;
77018;SDS011;66044;53.142;17.962;2023-02-11T07:08:45;21.40;;;10.00;;
77018;SDS011;66044;53.142;17.962;2023-02-11T07:11:16;33.80;;;15.00;;
77018;SDS011;66044;53.142;17.962;2023-02-11T07:13:45;29.00;;;13.50;;
77018;SDS011;66044;53.142;17.962;2023-02-11T07:16:14;22.80;;;11.00;;
77018;SDS011;66044;53.142;17.962;2023-02-11T07:18:42;19.40;;;8.60;;
77018;SDS011;66044;53.142;17.962;2023-02-11T07:21:11;25.70;;;11.00;;
77018;SDS011;66044;53.142;17.962;2023-02-11T07:23:40;28.50;;;11.90;;
77018;SDS011;66044;53.142;17.962;2023-02-11T07:26:08;43.30;;;16.40;;
77018;SDS011;66044;53.142;17.962;2023-02-11T07:28:39;29.90;;;13.60;;
77018;SDS011;66044;53.142;17.962;2023-02-11T07:31:07;23.40;;;10.40;;
77018;SDS011;66044;53.142;17.962;2023-02-11T07:33:36;20.30;;;10.30;;
77018;SDS011;66044;53.142;17.962;2023-02-11T07:36:03;32.80;;;13.80;;
77018;SDS011;66044;53.142;17.962;2023-02-11T07:38:32;27.80;;;12.30;;
77018;SDS011;66044;53.142;17.962;2023-02-11T07:41:00;28.50;;;12.00;;
77018;SDS011;66044;53.142;17.962;2023-02-11T07:43:32;25.00;;;12.00;;
77018;SDS011;66044;53.142;17.962;2023-02-11T07:46:10;25.70;;;13.00;;
77018;SDS011;66044;53.142;17.962;2023-02-11T07:48:39;21.70;;;10.00;;
77018;SDS011;66044;53.142;17.962;2023-02-11T07:51:06;19.60;;;9.40;;
77018;SDS011;66044;53.142;17.962;2023-02-11T07:53:40;29.00;;;13.40;;
77018;SDS011;66044;53.142;17.962;2023-02-11T07:56:08;21.70;;;9.60;;
77018;SDS011;66044;53.142;17.962;2023-02-11T07:58:36;23.10;;;10.10;;
77018;SDS011;66044;53.142;17.962;2023-02-11T08:01:04;26.70;;;11.90;;
77018;SDS011;66044;53.142;17.962;2023-02-11T08:03:33;24.00;;;10.00;;
77018;SDS011;66044;53.142;17.962;2023-02-11T08:06:08;22.70;;;10.30;;
77018;SDS011;66044;53.142;17.962;2023-02-11T08:08:37;25.60;;;11.40;;
77018;SDS011;66044;53.142;17.962;2023-02-11T08:13:39;22.50;;;10.40;;
77018;SDS011;66044;53.142;17.962;2023-02-11T08:16:06;22.60;;;11.10;;
77018;SDS011;66044;53.142;17.962;2023-02-11T08:18:34;20.80;;;9.80;;
77018;SDS011;66044;53.142;17.962;2023-02-11T08:21:07;26.20;;;12.50;;
77018;SDS011;66044;53.142;17.962;2023-02-11T08:23:36;22.80;;;9.70;;
77018;SDS011;66044;53.142;17.962;2023-02-11T08:26:04;24.20;;;11.10;;
77018;SDS011;66044;53.142;17.962;2023-02-11T08:28:36;24.10;;;9.90;;
77018;SDS011;66044;53.142;17.962;2023-02-11T08:31:07;20.10;;;9.30;;
77018;SDS011;66044;53.142;17.962;2023-02-11T08:33:35;26.50;;;13.00;;
77018;SDS011;66044;53.142;17.962;2023-02-11T08:36:08;24.60;;;11.50;;
77018;SDS011;66044;53.142;17.962;2023-02-11T08:38:40;17.90;;;8.80;;
77018;SDS011;66044;53.142;17.962;2023-02-11T08:41:07;17.70;;;7.80;;
77018;SDS011;66044;53.142;17.962;2023-02-11T08:43:35;23.70;;;10.80;;
77018;SDS011;66044;53.142;17.962;2023-02-11T08:46:02;24.20;;;10.90;;
77018;SDS011;66044;53.142;17.962;2023-02-11T08:48:29;21.50;;;10.40;;
77018;SDS011;66044;53.142;17.962;2023-02-11T08:50:55;21.10;;;9.80;;
77018;SDS011;66044;53.142;17.962;2023-02-11T08:53:23;25.30;;;11.70;;
77018;SDS011;66044;53.142;17.962;2023-02-11T08:55:50;21.00;;;9.80;;
77018;SDS011;66044;53.142;17.962;2023-02-11T08:58:18;22.30;;;8.00;;
77018;SDS011;66044;53.142;17.962;2023-02-11T09:00:45;27.40;;;12.00;;
77018;SDS011;66044;53.142;17.962;2023-02-11T09:03:13;24.50;;;11.40;;
77018;SDS011;66044;53.142;17.962;2023-02-11T09:05:41;21.70;;;9.20;;
77018;SDS011;66044;53.142;17.962;2023-02-11T09:08:09;26.60;;;12.80;;
77018;SDS011;66044;53.142;17.962;2023-02-11T09:10:36;25.90;;;11.40;;
77018;SDS011;66044;53.142;17.962;2023-02-11T09:13:03;27.90;;;13.40;;
77018;SDS011;66044;53.142;17.962;2023-02-11T09:15:29;28.90;;;13.30;;
77018;SDS011;66044;53.142;17.962;2023-02-11T09:17:56;27.70;;;10.30;;
77018;SDS011;66044;53.142;17.962;2023-02-11T09:20:23;21.60;;;9.90;;
77018;SDS011;66044;53.142;17.962;2023-02-11T09:22:51;29.50;;;13.70;;
77018;SDS011;66044;53.142;17.962;2023-02-11T09:25:19;22.40;;;11.10;;
77018;SDS011;66044;53.142;17.962;2023-02-11T09:27:46;24.00;;;10.50;;
77018;SDS011;66044;53.142;17.962;2023-02-11T09:30:12;26.90;;;11.40;;
77018;SDS011;66044;53.142;17.962;2023-02-11T09:32:39;29.00;;;12.90;;
77018;SDS011;66044;53.142;17.962;2023-02-11T09:35:05;24.50;;;10.80;;
77018;SDS011;66044;53.142;17.962;2023-02-11T09:37:32;24.00;;;10.30;;
77018;SDS011;66044;53.142;17.962;2023-02-11T09:39:58;24.80;;;11.10;;
77018;SDS011;66044;53.142;17.962;2023-02-11T09:45:18;23.30;;;10.90;;
77018;SDS011;66044;53.142;17.962;2023-02-11T09:47:56;23.00;;;10.90;;
77018;SDS011;66044;53.142;17.962;2023-02-11T09:50:35;19.60;;;8.80;;
77018;SDS011;66044;53.142;17.962;2023-02-11T09:53:21;26.60;;;11.30;;
77018;SDS011;66044;53.142;17.962;2023-02-11T09:55:54;21.00;;;9.10;;
77018;SDS011;66044;53.142;17.962;2023-02-11T09:58:27;25.90;;;12.00;;
77018;SDS011;66044;53.142;17.962;2023-02-11T10:07:18;20.50;;;9.60;;
77018;SDS011;66044;53.142;17.962;2023-02-11T10:10:16;20.00;;;8.70;;
77018;SDS011;66044;53.142;17.962;2023-02-11T10:12:52;21.40;;;10.30;;
77018;SDS011;66044;53.142;17.962;2023-02-11T10:18:30;23.70;;;11.50;;
77018;SDS011;66044;53.142;17.962;2023-02-11T10:23:50;28.90;;;14.00;;
77018;SDS011;66044;53.142;17.962;2023-02-11T10:26:22;30.10;;;14.60;;
77018;SDS011;66044;53.142;17.962;2023-02-11T10:28:49;27.90;;;13.90;;
77018;SDS011;66044;53.142;17.962;2023-02-11T10:31:20;21.80;;;9.80;;
77018;SDS011;66044;53.142;17.962;2023-02-11T10:34:10;19.00;;;9.80;;
77018;SDS011;66044;53.142;17.962;2023-02-11T10:36:39;18.20;;;9.20;;
77018;SDS011;66044;53.142;17.962;2023-02-11T10:39:11;23.00;;;11.20;;
77018;SDS011;66044;53.142;17.962;2023-02-11T10:41:43;20.30;;;9.60;;
77018;SDS011;66044;53.142;17.962;2023-02-11T10:44:21;30.00;;;14.30;;
77018;SDS011;66044;53.142;17.962;2023-02-11T10:46:54;27.90;;;13.20;;
77018;SDS011;66044;53.142;17.962;2023-02-11T10:49:32;24.10;;;11.80;;
77018;SDS011;66044;53.142;17.962;2023-02-11T10:52:12;22.90;;;10.30;;
77018;SDS011;66044;53.142;17.962;2023-02-11T10:54:38;15.70;;;6.90;;
77018;SDS011;66044;53.142;17.962;2023-02-11T10:57:05;20.50;;;8.70;;
77018;SDS011;66044;53.142;17.962;2023-02-11T10:59:33;25.90;;;12.20;;
77018;SDS011;66044;53.142;17.962;2023-02-11T11:02:16;22.70;;;11.50;;
77018;SDS011;66044;53.142;17.962;2023-02-11T11:04:48;21.20;;;10.60;;
77018;SDS011;66044;53.142;17.962;2023-02-11T11:07:22;20.60;;;10.00;;
77018;SDS011;66044;53.142;17.962;2023-02-11T11:09:54;28.90;;;14.70;;
77018;SDS011;66044;53.142;17.962;2023-02-11T11:12:35;20.30;;;10.50;;
77018;SDS011;66044;53.142;17.962;2023-02-11T11:15:24;20.00;;;8.80;;
77018;SDS011;66044;53.142;17.962;2023-02-11T11:18:08;18.80;;;9.70;;
77018;SDS011;66044;53.142;17.962;2023-02-11T11:20:37;18.90;;;9.00;;
77018;SDS011;66044;53.142;17.962;2023-02-11T11:25:42;28.10;;;13.60;;
77018;SDS011;66044;53.142;17.962;2023-02-11T11:28:19;26.40;;;12.50;;
77018;SDS011;66044;53.142;17.962;2023-02-11T11:30:48;21.40;;;10.30;;
77018;SDS011;66044;53.142;17.962;2023-02-11T11:33:20;18.90;;;9.80;;
77018;SDS011;66044;53.142;17.962;2023-02-11T11:36:01;16.70;;;8.10;;
77018;SDS011;66044;53.142;17.962;2023-02-11T11:38:34;26.60;;;13.90;;
77018;SDS011;66044;53.142;17.962;2023-02-11T11:44:22;19.20;;;9.30;;
77018;SDS011;66044;53.142;17.962;2023-02-11T11:47:16;17.40;;;8.20;;
77018;SDS011;66044;53.142;17.962;2023-02-11T11:57:47;15.80;;;8.10;;
77018;SDS011;66044;53.142;17.962;2023-02-11T12:00:16;14.90;;;7.50;;
77018;SDS011;66044;53.142;17.962;2023-02-11T12:08:16;18.70;;;9.40;;
77018;SDS011;66044;53.142;17.962;2023-02-11T12:16:36;14.80;;;7.30;;
77018;SDS011;66044;53.142;17.962;2023-02-11T12:27:47;15.40;;;7.70;;
77018;SDS011;66044;53.142;17.962;2023-02-11T12:30:27;15.20;;;7.80;;
77018;SDS011;66044;53.142;17.962;2023-02-11T12:38:59;14.10;;;6.20;;
77018;SDS011;66044;53.142;17.962;2023-02-11T12:41:31;13.10;;;6.30;;
77018;SDS011;66044;53.142;17.962;2023-02-11T12:44:26;17.60;;;8.90;;
77018;SDS011;66044;53.142;17.962;2023-02-11T12:47:00;17.60;;;8.00;;
77018;SDS011;66044;53.142;17.962;2023-02-11T12:55:50;20.10;;;11.20;;
77018;SDS011;66044;53.142;17.962;2023-02-11T12:58:25;19.10;;;10.90;;
77018;SDS011;66044;53.142;17.962;2023-02-11T13:00:57;17.40;;;9.50;;
77018;SDS011;66044;53.142;17.962;2023-02-11T13:06:15;15.40;;;7.30;;
77018;SDS011;66044;53.142;17.962;2023-02-11T13:08:47;12.50;;;5.60;;
77018;SDS011;66044;53.142;17.962;2023-02-11T13:11:17;12.00;;;6.30;;
77018;SDS011;66044;53.142;17.962;2023-02-11T13:16:33;15.30;;;7.70;;
77018;SDS011;66044;53.142;17.962;2023-02-11T13:19:32;12.20;;;6.60;;
77018;SDS011;66044;53.142;17.962;2023-02-11T13:22:11;11.50;;;6.30;;
77018;SDS011;66044;53.142;17.962;2023-02-11T13:24:43;14.30;;;7.40;;
77018;SDS011;66044;53.142;17.962;2023-02-11T13:27:37;15.50;;;7.30;;
77018;SDS011;66044;53.142;17.962;2023-02-11T13:30:19;16.00;;;8.20;;
77018;SDS011;66044;53.142;17.962;2023-02-11T13:35:27;13.40;;;7.00;;
77018;SDS011;66044;53.142;17.962;2023-02-11T13:38:03;12.70;;;7.00;;
77018;SDS011;66044;53.142;17.962;2023-02-11T13:40:38;12.60;;;6.70;;
77018;SDS011;66044;53.142;17.962;2023-02-11T13:43:06;11.70;;;6.30;;
77018;SDS011;66044;53.142;17.962;2023-02-11T13:45:47;13.70;;;6.70;;
77018;SDS011;66044;53.142;17.962;2023-02-11T13:48:19;14.50;;;7.20;;
77018;SDS011;66044;53.142;17.962;2023-02-11T13:50:53;14.10;;;7.30;;
77018;SDS011;66044;53.142;17.962;2023-02-11T13:53:22;11.20;;;6.30;;
77018;SDS011;66044;53.142;17.962;2023-02-11T13:55:50;11.40;;;5.80;;
77018;SDS011;66044;53.142;17.962;2023-02-11T14:00:52;13.00;;;7.30;;
77018;SDS011;66044;53.142;17.962;2023-02-11T14:22:00;16.10;;;8.80;;
77018;SDS011;66044;53.142;17.962;2023-02-11T14:26:59;18.70;;;10.20;;
77018;SDS011;66044;53.142;17.962;2023-02-11T14:29:58;16.40;;;8.60;;
77018;SDS011;66044;53.142;17.962;2023-02-11T14:32:37;13.20;;;7.40;;
77018;SDS011;66044;53.142;17.962;2023-02-11T14:35:35;15.70;;;9.00;;
77018;SDS011;66044;53.142;17.962;2023-02-11T14:41:26;13.30;;;7.70;;
77018;SDS011;66044;53.142;17.962;2023-02-11T14:43:56;14.80;;;7.70;;
77018;SDS011;66044;53.142;17.962;2023-02-11T14:46:26;16.30;;;8.00;;
77018;SDS011;66044;53.142;17.962;2023-02-11T14:48:59;16.80;;;8.10;;
77018;SDS011;66044;53.142;17.962;2023-02-11T14:54:10;18.20;;;9.00;;
77018;SDS011;66044;53.142;17.962;2023-02-11T14:56:38;16.30;;;8.60;;
77018;SDS011;66044;53.142;17.962;2023-02-11T14:59:12;21.40;;;12.50;;
77018;SDS011;66044;53.142;17.962;2023-02-11T15:01:44;25.90;;;14.10;;
77018;SDS011;66044;53.142;17.962;2023-02-11T15:07:10;21.30;;;11.90;;
77018;SDS011;66044;53.142;17.962;2023-02-11T15:09:39;16.90;;;9.40;;
77018;SDS011;66044;53.142;17.962;2023-02-11T15:12:16;14.90;;;8.30;;
77018;SDS011;66044;53.142;17.962;2023-02-11T15:14:52;14.40;;;8.00;;
77018;SDS011;66044;53.142;17.962;2023-02-11T15:17:22;15.00;;;8.30;;
77018;SDS011;66044;53.142;17.962;2023-02-11T15:19:51;17.00;;;8.70;;
77018;SDS011;66044;53.142;17.962;2023-02-11T15:22:22;17.00;;;8.60;;
77018;SDS011;66044;53.142;17.962;2023-02-11T15:25:08;17.20;;;9.20;;
77018;SDS011;66044;53.142;17.962;2023-02-11T15:27:40;19.70;;;10.80;;
77018;SDS011;66044;53.142;17.962;2023-02-11T15:32:48;18.20;;;9.40;;
77018;SDS011;66044;53.142;17.962;2023-02-11T15:35:16;17.70;;;9.30;;
77018;SDS011;66044;53.142;17.962;2023-02-11T15:37:43;17.80;;;9.10;;
77018;SDS011;66044;53.142;17.962;2023-02-11T15:40:15;16.40;;;8.90;;
77018;SDS011;66044;53.142;17.962;2023-02-11T15:42:51;19.20;;;9.40;;
77018;SDS011;66044;53.142;17.962;2023-02-11T15:48:43;17.90;;;9.70;;
77018;SDS011;66044;53.142;17.962;2023-02-11T15:53:54;19.60;;;11.40;;
77018;SDS011;66044;53.142;17.962;2023-02-11T15:58:55;25.20;;;12.60;;
77018;SDS011;66044;53.142;17.962;2023-02-11T16:01:29;20.20;;;11.90;;
77018;SDS011;66044;53.142;17.962;2023-02-11T16:03:58;21.30;;;11.70;;
77018;SDS011;66044;53.142;17.962;2023-02-11T16:06:26;19.30;;;10.50;;
77018;SDS011;66044;53.142;17.962;2023-02-11T16:11:36;22.20;;;11.20;;
77018;SDS011;66044;53.142;17.962;2023-02-11T16:16:55;24.30;;;12.90;;
77018;SDS011;66044;53.142;17.962;2023-02-11T16:19:25;17.60;;;9.60;;
77018;SDS011;66044;53.142;17.962;2023-02-11T16:21:57;18.30;;;10.30;;
77018;SDS011;66044;53.142;17.962;2023-02-11T16:24:27;16.20;;;8.60;;
77018;SDS011;66044;53.142;17.962;2023-02-11T16:26:58;17.90;;;9.90;;
77018;SDS011;66044;53.142;17.962;2023-02-11T16:29:27;19.60;;;10.30;;
77018;SDS011;66044;53.142;17.962;2023-02-11T16:34:56;32.70;;;18.10;;
77018;SDS011;66044;53.142;17.962;2023-02-11T16:37:24;21.30;;;12.40;;
77018;SDS011;66044;53.142;17.962;2023-02-11T16:39:54;17.70;;;9.90;;
77018;SDS011;66044;53.142;17.962;2023-02-11T16:42:21;20.10;;;10.60;;
77018;SDS011;66044;53.142;17.962;2023-02-11T16:44:48;21.70;;;10.40;;
77018;SDS011;66044;53.142;17.962;2023-02-11T16:47:25;14.00;;;7.80;;
77018;SDS011;66044;53.142;17.962;2023-02-11T16:49:53;16.60;;;8.40;;
77018;SDS011;66044;53.142;17.962;2023-02-11T16:52:21;19.80;;;9.60;;
77018;SDS011;66044;53.142;17.962;2023-02-11T16:54:47;17.50;;;9.20;;
77018;SDS011;66044;53.142;17.962;2023-02-11T16:59:42;17.40;;;8.80;;
77018;SDS011;66044;53.142;17.962;2023-02-11T17:02:17;18.00;;;10.10;;
77018;SDS011;66044;53.142;17.962;2023-02-11T17:04:48;24.50;;;13.50;;
77018;SDS011;66044;53.142;17.962;2023-02-11T17:07:14;27.00;;;15.00;;
77018;SDS011;66044;53.142;17.962;2023-02-11T17:09:41;25.40;;;13.00;;
77018;SDS011;66044;53.142;17.962;2023-02-11T17:12:07;20.00;;;10.30;;